Map

Track Data

SID SEASON NUMBER BASIN SUBBASIN NAME ISO_TIME NATURE LAT LON WMO_WIND WMO_PRES WMO_AGENCY TRACK_TYPE DIST2LAND LANDFALL IFLAG USA_AGENCY USA_ATCF_ID USA_LAT USA_LON USA_RECORD USA_STATUS USA_WIND USA_PRES USA_SSHS USA_R34_NE USA_R34_SE USA_R34_SW USA_R34_NW USA_R50_NE USA_R50_SE USA_R50_SW USA_R50_NW USA_R64_NE USA_R64_SE USA_R64_SW USA_R64_NW USA_POCI USA_ROCI USA_RMW USA_EYE TOKYO_LAT TOKYO_LON TOKYO_GRADE TOKYO_WIND TOKYO_PRES TOKYO_R50_DIR TOKYO_R50_LONG TOKYO_R50_SHORT TOKYO_R30_DIR TOKYO_R30_LONG TOKYO_R30_SHORT TOKYO_LAND CMA_LAT CMA_LON CMA_CAT CMA_WIND CMA_PRES HKO_LAT HKO_LON HKO_CAT HKO_WIND HKO_PRES NEWDELHI_LAT NEWDELHI_LON NEWDELHI_GRADE NEWDELHI_WIND NEWDELHI_PRES NEWDELHI_CI NEWDELHI_DP NEWDELHI_POCI REUNION_LAT REUNION_LON REUNION_TYPE REUNION_WIND REUNION_PRES REUNION_TNUM REUNION_CI REUNION_RMW REUNION_R34_NE REUNION_R34_SE REUNION_R34_SW REUNION_R34_NW REUNION_R50_NE REUNION_R50_SE REUNION_R50_SW REUNION_R50_NW REUNION_R64_NE REUNION_R64_SE REUNION_R64_SW REUNION_R64_NW BOM_LAT BOM_LON BOM_TYPE BOM_WIND BOM_PRES BOM_TNUM BOM_CI BOM_RMW BOM_R34_NE BOM_R34_SE BOM_R34_SW BOM_R34_NW BOM_R50_NE BOM_R50_SE BOM_R50_SW BOM_R50_NW BOM_R64_NE BOM_R64_SE BOM_R64_SW BOM_R64_NW BOM_ROCI BOM_POCI BOM_EYE BOM_POS_METHOD BOM_PRES_METHOD NADI_LAT NADI_LON NADI_CAT NADI_WIND NADI_PRES WELLINGTON_LAT WELLINGTON_LON WELLINGTON_WIND WELLINGTON_PRES DS824_LAT DS824_LON DS824_STAGE DS824_WIND DS824_PRES TD9636_LAT TD9636_LON TD9636_STAGE TD9636_WIND TD9636_PRES TD9635_LAT TD9635_LON TD9635_WIND TD9635_PRES TD9635_ROCI NEUMANN_LAT NEUMANN_LON NEUMANN_CLASS NEUMANN_WIND NEUMANN_PRES MLC_LAT MLC_LON MLC_CLASS MLC_WIND MLC_PRES USA_GUST BOM_GUST BOM_GUST_PER REUNION_GUST REUNION_GUST_PER USA_SEAHGT USA_SEARAD_NE USA_SEARAD_SE USA_SEARAD_SW USA_SEARAD_NW STORM_SPEED STORM_DIR
1979238S08085 1980 76 SI MM TONY 1979-08-26 00:00:00 TS -8.10000 85.3000 main 1653 1646 _________O____ -1 -8.10000 85.3000 TC 20 1005 3 253
1979238S08085 1980 76 SI MM TONY 1979-08-26 03:00:00 TS -8.15002 85.1375 main 1657 1657 _________P____ -1 -8.15002 85.1375 TC 20 1005 2 246
1979238S08085 1980 76 SI MM TONY 1979-08-26 06:00:00 TS -8.20000 85.0750 main 1657 1653 _________O__O_ -1 -8.20000 85.0000 TC 20 1005 -8.20000 85.3000 TC 20 1004 2 242
1979238S08085 1980 76 SI MM TONY 1979-08-26 09:00:00 TS -8.22999 84.9833 main 1653 1650 _________P__P_ -1 -8.24998 84.9000 TC 20 1004 -8.19001 85.1500 TC 22 1003 2 253
1979238S08085 1980 76 SI MM TONY 1979-08-26 12:00:00 TS -8.25714 84.8857 main 1661 1658 _________O__O_ -1 -8.30000 84.8000 TC 20 1004 -8.20000 85.0000 TC 25 1003 2 254
1979238S08085 1980 76 SI MM TONY 1979-08-26 15:00:00 TS -8.29625 84.7500 main 1658 1651 _________P__P_ -1 -8.35001 84.6500 TC 22 1003 -8.24249 84.8500 TC 25 1002 3 252
1979238S08085 1980 76 SI MM TONY 1979-08-26 18:00:00 TS -8.35000 84.6000 main 1651 1659 _________O__O_ -1 -8.40000 84.5000 TC 25 1003 -8.30000 84.7000 TC 25 1002 3 249
1979238S08085 1980 76 SI MM TONY 1979-08-26 21:00:00 TS -8.40374 84.4713 main 1659 1656 _________P__P_ -1 -8.45748 84.4000 TC 25 1002 -8.35000 84.5425 TC 25 1002 3 248
1979238S08085 1980 76 SI MM TONY 1979-08-27 00:00:00 TS -8.45000 84.3500 main 1656 1656 _________O__O_ -1 -8.50000 84.3000 TC 25 1002 -8.40000 84.4000 TC 25 1002 3 253
1979238S08085 1980 76 SI MM TONY 1979-08-27 03:00:00 TS -8.47875 84.2212 main 1662 1659 _________P__P_ -1 -8.50001 84.1500 TC 27 1001 -8.45749 84.2925 TC 27 1001 3 259
1979238S08085 1980 76 SI MM TONY 1979-08-27 06:00:00 TS -8.50000 84.1000 main 1659 1657 _________O__O_ -1 -8.50000 84.0000 TC 30 1001 -8.50000 84.2000 TC 30 1000 2 259
1979238S08085 1980 76 SI MM TONY 1979-08-27 09:00:00 TS -8.52124 84.0037 main 1657 1654 _________P__P_ -1 -8.54247 83.9075 TC 30 1000 -8.50000 84.1000 TC 30 999 2 256
1979238S08085 1980 76 SI MM TONY 1979-08-27 12:00:00 TS -8.55000 83.9000 main 1654 1663 _________O__O_ -1 -8.60000 83.8000 TC 30 999 -8.50000 84.0000 TC 30 999 3 253
1979238S08085 1980 76 SI MM TONY 1979-08-27 15:00:00 TS -8.59626 83.7575 main 1663 1658 _________P__P_ -1 -8.65002 83.6075 TC 32 998 -8.54249 83.9075 TC 32 998 3 251
1979238S08085 1980 76 SI MM TONY 1979-08-27 18:00:00 TS -8.65000 83.6000 main 1658 1658 _________O__O_ -1 -8.70000 83.4000 TC 35 997 -8.60000 83.8000 TC 35 997 3 251
1979238S08085 1980 76 SI MM TONY 1979-08-27 21:00:00 TS -8.69998 83.4575 main 1667 1663 _________P__P_ -1 -8.74997 83.2500 TC 35 996 -8.64999 83.6650 TC 35 996 3 251
1979238S08085 1980 76 SI MM TONY 1979-08-28 00:00:00 TS -8.75000 83.3000 main 1663 1670 _________O__O_ -1 -8.80000 83.1000 TC 35 996 -8.70000 83.5000 TC 35 996 4 254
1979238S08085 1980 76 SI MM TONY 1979-08-28 03:00:00 TS -8.80001 83.1037 main 1670 1666 _________P__P_ -1 -8.85001 82.9000 TC 37 995 -8.75000 83.3075 TC 37 995 4 256
1979238S08085 1980 76 SI MM TONY 1979-08-28 06:00:00 TS -8.85000 82.9000 main 1666 1674 _________O__O_ -1 -8.90000 82.7000 TC 40 995 -8.80000 83.1000 TC 40 995 4 256
1979238S08085 1980 76 SI MM TONY 1979-08-28 09:00:00 TS -8.89624 82.7212 main 1674 1673 _________P__P_ -1 -8.94998 82.5425 TC 40 994 -8.84249 82.9000 TC 40 994 4 254
1979238S08085 1980 76 SI MM TONY 1979-08-28 12:00:00 TS -8.95000 82.5500 main 1673 1681 _________O__O_ -1 -9.00000 82.4000 TC 40 994 -8.90000 82.7000 TC 40 994 4 249
1979238S08085 1980 76 SI MM TONY 1979-08-28 15:00:00 TS -9.02499 82.3788 main 1681 1680 _________P__P_ -1 -9.04998 82.2575 TC 40 993 -8.99999 82.5000 TC 40 993 4 246
1979238S08085 1980 76 SI MM TONY 1979-08-28 18:00:00 TS -9.10000 82.2000 main 1690 1687 _________O__O_ -1 -9.10000 82.1000 TC 40 993 -9.10000 82.3000 TC 40 993 4 253
1979238S08085 1980 76 SI MM TONY 1979-08-28 21:00:00 TS -9.13874 82.0075 main 1687 1687 _________P__P_ -1 -9.13499 81.9150 TC 42 992 -9.14249 82.1000 TC 42 992 4 256
1979238S08085 1980 76 SI MM TONY 1979-08-29 00:00:00 TS -9.20000 81.8000 main 1697 1696 _________O__O_ -1 -9.20000 81.7000 TC 45 992 -9.20000 81.9000 TC 45 992 5 245
1979238S08085 1980 76 SI MM TONY 1979-08-29 03:00:00 TS -9.33501 81.5713 main 1706 1706 _________P__P_ -1 -9.33502 81.4425 TC 45 991 -9.33499 81.7000 TC 45 991 5 236
1979238S08085 1980 76 SI MM TONY 1979-08-29 06:00:00 TS -9.50000 81.3500 main 1727 1727 _________O__O_ -1 -9.50000 81.2000 TC 45 990 -9.50000 81.5000 TC 45 991 5 232
1979238S08085 1980 76 SI MM TONY 1979-08-29 09:00:00 TS -9.64247 81.1712 main 1738 1738 _________P__P_ -1 -9.64246 81.0424 TC 45 990 -9.64249 81.3000 TC 45 991 5 229
1979238S08085 1980 76 SI MM TONY 1979-08-29 12:00:00 TS -9.80000 81.0000 main 1759 1759 _________O__O_ -1 -9.80000 80.9000 TC 45 990 -9.80000 81.1000 TC 45 991 5 226
1979238S08085 1980 76 SI MM TONY 1979-08-29 15:00:00 TS -9.99626 80.7963 main 1781 1781 _________P__P_ -1 -9.99251 80.7000 TC 45 990 -10.0000 80.8925 TC 45 990 6 223
1979238S08085 1980 76 SI MM TONY 1979-08-29 18:00:00 TS -10.2000 80.6143 main 1804 1804 _________O__O_ -1 -10.2000 80.5000 TC 45 990 -10.2000 80.7000 TC 45 990 5 217
1979238S08085 1980 76 SI MM TONY 1979-08-29 21:00:00 TS -10.3874 80.4942 main 1826 1826 _________P__P_ -1 -10.4025 80.3375 TC 45 990 -10.3799 80.5725 TC 45 990 4 218
1979238S08085 1980 76 SI MM TONY 1979-08-30 00:00:00 TS -10.5200 80.3600 main 1837 1837 _________O__O_ -1 -10.6000 80.2000 TC 45 990 -10.5000 80.4000 TC 45 990 4 252
1979238S08085 1980 76 SI MM TONY 1979-08-30 03:00:00 TS -10.5225 80.0799 main 1838 1838 ____________P_ -1 TC -10.5225 80.0799 TC 42 992 7 272
1979238S08085 1980 76 SI MM TONY 1979-08-30 06:00:00 TS -10.5000 79.7000 main 1840 1840 ____________O_ -1 -10.5000 79.7000 TC 40 995 7 271
1979238S08085 1980 76 SI MM TONY 1979-08-30 09:00:00 TS -10.5075 79.3500 main 1842 1842 ____________P_ -1 -10.5075 79.3500 TC 37 996 7 270
1979238S08085 1980 76 SI MM TONY 1979-08-30 12:00:00 TS -10.5000 79.0000 main 1846 1846 ____________O_ -1 -10.5000 79.0000 TC 35 998 7 274
1979238S08085 1980 76 SI MM TONY 1979-08-30 15:00:00 TS -10.4575 78.6500 main 1849 1839 ____________P_ -1 -10.4575 78.6500 TC 32 999 7 278
1979238S08085 1980 76 SI MM TONY 1979-08-30 18:00:00 TS -10.4000 78.3000 main 1844 1844 ____________O_ -1 -10.4000 78.3000 TC 30 1000 7 279
1979238S08085 1980 76 SI MM TONY 1979-08-30 21:00:00 TS -10.3476 77.9500 main 1837 1839 ____________P_ -1 -10.3476 77.9500 TC 30 1000 7 278
1979238S08085 1980 76 SI MM TONY 1979-08-31 00:00:00 TS -10.3000 77.6000 main 1845 ____________O_ -1 -10.3000 77.6000 TC 30 1000 7 278

About IBTrACS Database

This database is a web-friendly format of International Best Track Archive for Climate Stewardship (IBTrACS), a global best track data archive curated by NOAA dating back to 1842.

Updated: 2021-10-08